createdAt,value
2019-05-20T00:00:51.295Z,77.36
2019-05-20T00:01:51.101Z,77.08
2019-05-20T00:02:51.008Z,77.08
2019-05-20T00:03:50.932Z,77.55
2019-05-20T00:04:50.822Z,76.69
2019-05-20T00:05:50.736Z,76.50
2019-05-20T00:06:50.635Z,76.88
2019-05-20T00:07:50.666Z,76.60
2019-05-20T00:08:50.465Z,76.98
2019-05-20T00:09:50.356Z,76.40
2019-05-20T00:10:50.260Z,76.40
2019-05-20T00:11:50.166Z,76.60
2019-05-20T00:12:50.075Z,76.40
2019-05-20T00:13:49.994Z,76.79
2019-05-20T00:14:50.035Z,76.40
2019-05-20T00:15:49.799Z,76.79
2019-05-20T00:16:49.700Z,76.98
2019-05-20T00:17:49.608Z,76.98
2019-05-20T00:18:49.527Z,76.31
2019-05-20T00:19:50.849Z,76.88
2019-05-20T00:20:49.327Z,76.79
2019-05-20T00:21:49.334Z,76.31
2019-05-20T00:22:49.147Z,76.60
2019-05-20T00:23:49.058Z,76.40
2019-05-20T00:24:48.957Z,76.40
2019-05-20T00:25:48.861Z,76.31
2019-05-20T00:26:48.767Z,76.60
2019-05-20T00:27:48.671Z,76.79
2019-05-20T00:28:48.697Z,76.31
2019-05-20T00:29:48.486Z,76.37
2019-05-20T00:30:48.395Z,76.84
2019-05-20T00:31:48.297Z,76.60
2019-05-20T00:32:48.207Z,76.98
2019-05-20T00:33:48.127Z,76.60
2019-05-20T00:34:48.121Z,76.69
2019-05-20T00:35:47.927Z,76.98
2019-05-20T00:36:47.834Z,76.60
2019-05-20T00:37:47.740Z,76.98
2019-05-20T00:38:47.659Z,76.50
2019-05-20T00:39:47.550Z,77.08
2019-05-20T00:40:47.459Z,76.40
2019-05-20T00:41:47.373Z,76.50
2019-05-20T00:42:47.279Z,76.60
2019-05-20T00:43:47.191Z,76.60
2019-05-20T00:44:47.083Z,76.03
2019-05-20T00:45:46.990Z,76.21
2019-05-20T00:46:46.897Z,75.98
2019-05-20T00:47:46.805Z,75.98
2019-05-20T00:48:46.723Z,75.60
2019-05-20T00:49:46.621Z,75.60
2019-05-20T00:50:46.524Z,75.60
2019-05-20T00:51:46.433Z,75.32
2019-05-20T00:52:46.335Z,75.32
2019-05-20T00:53:46.245Z,74.93
2019-05-20T00:54:46.162Z,74.84
2019-05-20T00:55:46.055Z,74.84
2019-05-20T00:56:45.963Z,74.55
2019-05-20T00:57:45.868Z,74.37
2019-05-20T00:58:45.783Z,74.27
2019-05-20T00:59:45.707Z,74.46
2019-05-20T01:00:45.593Z,74.65
2019-05-20T01:01:45.495Z,74.27
2019-05-20T01:02:56.576Z,73.69
2019-05-20T01:03:45.309Z,74.08
2019-05-20T01:04:45.236Z,73.98
2019-05-20T01:05:45.122Z,73.50
2019-05-20T01:06:45.041Z,73.69
2019-05-20T01:07:44.945Z,73.41
2019-05-20T01:08:44.848Z,73.50
2019-05-20T01:09:44.761Z,73.50
2019-05-20T01:10:44.655Z,73.79
2019-05-20T01:11:44.560Z,73.41
2019-05-20T01:12:44.468Z,73.22
2019-05-20T01:13:44.373Z,73.22
2019-05-20T01:14:44.292Z,73.22
2019-05-20T01:15:44.185Z,73.22
2019-05-20T01:16:44.092Z,73.41
2019-05-20T01:17:43.999Z,73.41
2019-05-20T01:18:43.906Z,73.41
2019-05-20T01:19:43.826Z,72.83
2019-05-20T01:20:43.716Z,73.22
2019-05-20T01:21:43.623Z,72.93
2019-05-20T01:22:43.532Z,72.55
2019-05-20T01:23:43.437Z,72.74
2019-05-20T01:24:43.358Z,72.55
2019-05-20T01:25:43.249Z,72.74
2019-05-20T01:26:43.157Z,72.64
2019-05-20T01:27:43.062Z,72.93
2019-05-20T01:28:42.968Z,71.98
2019-05-20T01:29:42.888Z,72.07
2019-05-20T01:30:42.788Z,71.88
2019-05-20T01:31:42.692Z,73.32
2019-05-20T01:32:42.593Z,73.69
2019-05-20T01:33:42.501Z,73.73
2019-05-20T01:34:42.423Z,73.63
2019-05-20T01:35:42.312Z,73.92
2019-05-20T01:36:42.222Z,74.59
2019-05-20T01:37:42.126Z,74.49
2019-05-20T01:38:42.035Z,74.34
2019-05-20T01:39:41.952Z,74.11
2019-05-20T01:40:41.846Z,74.63
2019-05-20T01:41:41.753Z,74.24
2019-05-20T01:42:41.659Z,74.02
2019-05-20T01:43:41.567Z,74.63
2019-05-20T01:44:41.485Z,74.40
2019-05-20T01:45:41.377Z,74.49
2019-05-20T01:46:41.286Z,74.73
2019-05-20T01:47:41.190Z,74.73
2019-05-20T01:48:41.100Z,74.91
2019-05-20T01:49:41.019Z,74.53
2019-05-20T01:50:40.913Z,74.78
2019-05-20T01:51:40.820Z,74.63
2019-05-20T01:52:40.733Z,74.21
2019-05-20T01:53:40.630Z,74.21
2019-05-20T01:54:40.540Z,74.40
2019-05-20T01:55:40.461Z,74.59
2019-05-20T01:56:40.356Z,74.49
2019-05-20T01:57:40.257Z,74.40
2019-05-20T01:58:40.207Z,74.49
2019-05-20T01:59:40.070Z,74.30
2019-05-20T02:00:39.991Z,74.69
2019-05-20T02:01:39.882Z,74.30
2019-05-20T02:02:39.790Z,74.49
2019-05-20T02:03:39.696Z,74.40
2019-05-20T02:04:39.603Z,74.59
2019-05-20T02:05:39.525Z,74.55
2019-05-20T02:06:39.416Z,74.59
2019-05-20T02:07:39.324Z,74.59
2019-05-20T02:08:39.230Z,74.78
2019-05-20T02:09:39.154Z,74.59
2019-05-20T02:10:39.060Z,74.78
2019-05-20T02:11:38.947Z,74.88
2019-05-20T02:12:38.956Z,74.88
2019-05-20T02:13:38.762Z,74.88
2019-05-20T02:14:38.669Z,74.21
2019-05-20T02:15:38.589Z,74.21
2019-05-20T02:16:38.482Z,74.30
2019-05-20T02:17:38.389Z,74.21
2019-05-20T02:18:38.294Z,74.40
2019-05-20T02:19:38.302Z,74.78
2019-05-20T02:20:38.124Z,74.40
2019-05-20T02:21:38.014Z,74.21
2019-05-20T02:22:37.934Z,74.49
2019-05-20T02:23:37.830Z,74.40
2019-05-20T02:24:37.735Z,74.59
2019-05-20T02:25:37.672Z,74.27
2019-05-20T02:26:37.649Z,74.84
2019-05-20T02:27:37.453Z,74.27
2019-05-20T02:28:37.359Z,74.37
2019-05-20T02:29:37.268Z,74.65
2019-05-20T02:30:37.196Z,74.27
2019-05-20T02:31:37.086Z,74.74
2019-05-20T02:32:36.989Z,74.65
2019-05-20T02:33:51.035Z,74.37
2019-05-20T02:34:36.803Z,74.74
2019-05-20T02:35:36.729Z,74.74
2019-05-20T02:36:36.619Z,74.74
2019-05-20T02:37:36.521Z,74.55
2019-05-20T02:38:36.436Z,74.65
2019-05-20T02:39:36.334Z,74.08
2019-05-20T02:40:36.360Z,74.37
2019-05-20T02:41:36.147Z,74.17
2019-05-20T02:42:36.057Z,74.27
2019-05-20T02:43:35.959Z,74.37
2019-05-20T02:44:35.867Z,74.08
2019-05-20T02:45:35.786Z,73.88
2019-05-20T02:46:35.680Z,73.88
2019-05-20T02:47:35.688Z,73.60
2019-05-20T02:48:35.527Z,73.41
2019-05-20T02:49:35.402Z,73.69
2019-05-20T02:50:35.306Z,73.41
2019-05-20T02:51:35.226Z,74.27
2019-05-20T02:52:35.117Z,73.79
2019-05-20T02:53:35.030Z,73.69
2019-05-20T02:54:34.930Z,73.98
2019-05-20T02:55:34.839Z,73.79
2019-05-20T02:56:34.756Z,73.69
2019-05-20T02:57:34.669Z,73.60
2019-05-20T02:58:34.556Z,73.79
2019-05-20T02:59:34.468Z,73.88
2019-05-20T03:00:34.371Z,73.32
2019-05-20T03:01:34.309Z,73.22
2019-05-20T03:02:34.182Z,73.32
2019-05-20T03:03:34.088Z,73.32
2019-05-20T03:04:33.998Z,73.69
2019-05-20T03:05:33.905Z,73.41
2019-05-20T03:06:33.822Z,73.41
2019-05-20T03:07:33.764Z,73.22
2019-05-20T03:08:33.623Z,72.83
2019-05-20T03:09:33.526Z,72.83
2019-05-20T03:10:33.435Z,72.83
2019-05-20T03:11:33.353Z,72.17
2019-05-20T03:12:33.250Z,72.45
2019-05-20T03:13:33.152Z,71.78
2019-05-20T03:14:33.059Z,72.26
2019-05-20T03:15:32.971Z,72.17
2019-05-20T03:16:33.252Z,72.26
2019-05-20T03:17:32.788Z,71.84
2019-05-20T03:18:32.683Z,72.03
2019-05-20T03:19:32.589Z,71.98
2019-05-20T03:20:32.568Z,71.88
2019-05-20T03:21:32.415Z,71.69
2019-05-20T03:22:32.314Z,71.69
2019-05-20T03:23:32.324Z,71.50
2019-05-20T03:24:32.120Z,71.41
2019-05-20T03:25:32.028Z,71.69
2019-05-20T03:26:31.953Z,71.41
2019-05-20T03:27:31.840Z,71.21
2019-05-20T03:28:31.745Z,71.50
2019-05-20T03:29:31.651Z,71.21
2019-05-20T03:30:31.678Z,71.31
2019-05-20T03:31:31.479Z,71.59
2019-05-20T03:32:31.370Z,71.59
2019-05-20T03:33:31.279Z,71.59
2019-05-20T03:34:57.906Z,71.69
2019-05-20T03:35:31.111Z,71.41
2019-05-20T03:36:31.058Z,71.21
2019-05-20T03:37:30.903Z,71.12
2019-05-20T03:38:30.810Z,71.31
2019-05-20T03:39:30.717Z,71.31
2019-05-20T03:40:30.621Z,70.92
2019-05-20T03:41:30.541Z,70.73
2019-05-20T03:42:30.433Z,70.54
2019-05-20T03:43:30.344Z,70.83
2019-05-20T03:44:30.248Z,70.26
2019-05-20T03:45:30.162Z,70.07
2019-05-20T03:46:30.074Z,69.97
2019-05-20T03:47:29.964Z,70.07
2019-05-20T03:48:29.881Z,69.78
2019-05-20T03:49:29.777Z,69.78
2019-05-20T03:50:29.684Z,69.97
2019-05-20T03:51:29.604Z,69.68
2019-05-20T03:52:29.498Z,69.59
2019-05-20T03:53:29.402Z,69.97
2019-05-20T03:54:29.309Z,69.59
2019-05-20T03:55:29.220Z,69.78
2019-05-20T03:56:29.133Z,69.31
2019-05-20T03:57:29.027Z,69.49
2019-05-20T03:58:28.938Z,69.31
2019-05-20T03:59:28.848Z,69.11
2019-05-20T04:00:28.749Z,69.49
2019-05-20T04:01:28.666Z,69.49
2019-05-20T04:02:28.573Z,68.92
2019-05-20T04:03:28.464Z,69.31
2019-05-20T04:04:28.372Z,69.02
2019-05-20T04:05:28.276Z,69.11
2019-05-20T04:06:28.199Z,69.11
2019-05-20T04:07:28.103Z,69.59
2019-05-20T04:08:27.996Z,69.21
2019-05-20T04:09:27.906Z,69.40
2019-05-20T04:10:27.810Z,69.31
2019-05-20T04:11:27.724Z,69.40
2019-05-20T04:12:27.635Z,69.31
2019-05-20T04:13:27.529Z,69.11
2019-05-20T04:14:27.432Z,69.31
2019-05-20T04:15:27.342Z,69.68
2019-05-20T04:16:27.254Z,69.59
2019-05-20T04:17:27.169Z,69.24
2019-05-20T04:18:27.062Z,69.72
2019-05-20T04:19:26.965Z,69.43
2019-05-20T04:20:26.872Z,69.24
2019-05-20T04:21:26.781Z,69.72
2019-05-20T04:22:26.704Z,69.72
2019-05-20T04:23:26.591Z,69.40
2019-05-20T04:24:26.498Z,69.53
2019-05-20T04:25:26.407Z,69.43
2019-05-20T04:26:26.326Z,69.59
2019-05-20T04:27:26.233Z,69.82
2019-05-20T04:28:26.123Z,70.01
2019-05-20T04:29:26.051Z,69.82
2019-05-20T04:30:25.962Z,69.53
2019-05-20T04:31:25.846Z,69.72
2019-05-20T04:32:25.765Z,70.01
2019-05-20T04:33:25.656Z,70.10
2019-05-20T04:34:25.582Z,70.01
2019-05-20T04:35:25.471Z,70.10
2019-05-20T04:36:25.404Z,70.29
2019-05-20T04:37:25.299Z,69.82
2019-05-20T04:38:25.195Z,69.91
2019-05-20T04:39:25.101Z,70.29
2019-05-20T04:40:25.007Z,70.10
2019-05-20T04:41:24.940Z,69.91
2019-05-20T04:42:24.831Z,70.01
2019-05-20T04:43:24.723Z,70.10
2019-05-20T04:44:24.632Z,70.01
2019-05-20T04:45:24.542Z,70.01
2019-05-20T04:46:24.452Z,70.01
2019-05-20T04:47:24.363Z,69.91
2019-05-20T04:48:24.259Z,70.10
2019-05-20T04:49:24.162Z,70.20
2019-05-20T04:50:24.072Z,70.10
2019-05-20T04:51:23.985Z,69.82
2019-05-20T04:52:23.896Z,69.91
2019-05-20T04:53:23.893Z,70.01
2019-05-20T04:54:23.703Z,70.10
2019-05-20T04:55:23.602Z,70.67
2019-05-20T04:56:23.507Z,69.91
2019-05-20T04:57:23.430Z,70.20
2019-05-20T04:58:23.322Z,70.10
2019-05-20T04:59:23.229Z,70.10
2019-05-20T05:00:23.237Z,70.77
2019-05-20T05:01:23.042Z,70.01
2019-05-20T05:02:22.965Z,70.10
2019-05-20T05:03:22.859Z,70.10
2019-05-20T05:04:22.763Z,70.29
2019-05-20T05:05:36.811Z,70.01
2019-05-20T05:06:22.594Z,70.10
2019-05-20T05:07:22.617Z,70.01
2019-05-20T05:08:22.391Z,70.20
2019-05-20T05:09:22.297Z,70.20
2019-05-20T05:10:22.202Z,70.77
2019-05-20T05:11:22.108Z,70.39
2019-05-20T05:12:22.031Z,70.01
2019-05-20T05:13:21.925Z,70.67
2019-05-20T05:14:22.029Z,70.96
2019-05-20T05:15:21.735Z,70.96
2019-05-20T05:16:21.659Z,70.67
2019-05-20T05:17:21.554Z,70.48
2019-05-20T05:18:21.472Z,71.09
2019-05-20T05:19:21.364Z,71.15
2019-05-20T05:20:21.287Z,71.47
2019-05-20T05:21:21.282Z,71.57
2019-05-20T05:22:21.086Z,71.57
2019-05-20T05:23:21.004Z,71.47
2019-05-20T05:24:20.897Z,71.38
2019-05-20T05:25:20.804Z,71.38
2019-05-20T05:26:20.717Z,71.57
2019-05-20T05:27:20.618Z,71.00
2019-05-20T05:28:20.646Z,71.28
2019-05-20T05:29:20.432Z,71.67
2019-05-20T05:30:20.342Z,71.38
2019-05-20T05:31:20.248Z,71.95
2019-05-20T05:32:20.154Z,71.47
2019-05-20T05:33:20.082Z,71.09
2019-05-20T05:34:20.093Z,71.19
2019-05-20T05:35:19.876Z,71.76
2019-05-20T05:36:19.783Z,71.86
2019-05-20T05:37:19.689Z,71.95
2019-05-20T05:38:19.612Z,72.43
2019-05-20T05:39:19.504Z,72.53
2019-05-20T05:40:19.411Z,72.28
2019-05-20T05:41:19.318Z,72.24
2019-05-20T05:42:19.227Z,72.43
2019-05-20T05:43:19.149Z,72.43
2019-05-20T05:44:19.043Z,72.33
2019-05-20T05:45:18.949Z,72.53
2019-05-20T05:46:18.855Z,72.43
2019-05-20T05:47:18.760Z,72.33
2019-05-20T05:48:18.685Z,72.43
2019-05-20T05:49:18.579Z,72.43
2019-05-20T05:50:18.484Z,71.95
2019-05-20T05:51:18.390Z,72.43
2019-05-20T05:52:18.299Z,72.33
2019-05-20T05:53:18.220Z,72.62
2019-05-20T05:54:18.112Z,72.62
2019-05-20T05:55:18.023Z,72.43
2019-05-20T05:56:17.927Z,72.43
2019-05-20T05:57:17.852Z,72.62
2019-05-20T05:58:17.755Z,72.53
2019-05-20T05:59:17.661Z,72.24
2019-05-20T06:00:17.555Z,72.53
2019-05-20T06:01:17.462Z,72.24
2019-05-20T06:02:17.370Z,72.43
2019-05-20T06:03:17.278Z,72.14
2019-05-20T06:04:17.205Z,72.53
2019-05-20T06:05:17.093Z,72.05
2019-05-20T06:06:17.001Z,72.24
2019-05-20T06:07:16.907Z,72.24
2019-05-20T06:08:16.818Z,72.53
2019-05-20T06:09:16.739Z,72.14
2019-05-20T06:10:16.633Z,72.24
2019-05-20T06:11:16.537Z,72.24
2019-05-20T06:12:16.442Z,72.24
2019-05-20T06:13:16.351Z,72.14
2019-05-20T06:14:16.275Z,72.43
2019-05-20T06:15:16.166Z,73.10
2019-05-20T06:16:16.071Z,72.14
2019-05-20T06:17:15.984Z,72.24
2019-05-20T06:18:15.896Z,72.33
2019-05-20T06:19:15.809Z,72.47
2019-05-20T06:20:15.702Z,72.47
2019-05-20T06:21:15.611Z,72.47
2019-05-20T06:22:15.518Z,72.47
2019-05-20T06:23:15.424Z,72.47
2019-05-20T06:24:15.345Z,72.28
2019-05-20T06:25:15.244Z,72.37
2019-05-20T06:26:15.155Z,71.89
2019-05-20T06:27:15.052Z,71.99
2019-05-20T06:28:14.960Z,72.18
2019-05-20T06:29:14.887Z,72.47
2019-05-20T06:30:14.779Z,72.28
2019-05-20T06:31:14.686Z,72.37
2019-05-20T06:32:14.742Z,72.66
2019-05-20T06:33:14.501Z,72.18
2019-05-20T06:34:14.437Z,73.14
2019-05-20T06:35:14.313Z,72.56
2019-05-20T06:36:26.003Z,73.23
2019-05-20T06:37:14.127Z,72.66
2019-05-20T06:38:14.035Z,72.85
2019-05-20T06:39:14.040Z,72.18
2019-05-20T06:40:13.852Z,72.94
2019-05-20T06:41:13.767Z,72.94
2019-05-20T06:42:13.666Z,72.94
2019-05-20T06:43:13.574Z,73.04
2019-05-20T06:44:13.496Z,73.43
2019-05-20T06:45:13.393Z,73.43
2019-05-20T06:46:13.306Z,73.46
2019-05-20T06:47:13.203Z,73.65
2019-05-20T06:48:13.132Z,73.36
2019-05-20T06:49:13.033Z,73.17
2019-05-20T06:50:12.943Z,73.84
2019-05-20T06:51:12.941Z,73.36
2019-05-20T06:52:12.742Z,73.65
2019-05-20T06:53:12.651Z,73.65
2019-05-20T06:54:12.573Z,73.75
2019-05-20T06:55:12.465Z,73.84
2019-05-20T06:56:12.375Z,74.41
2019-05-20T06:57:12.703Z,74.13
2019-05-20T06:58:12.306Z,74.61
2019-05-20T06:59:12.110Z,74.51
2019-05-20T07:00:12.018Z,73.94
2019-05-20T07:01:11.913Z,74.61
2019-05-20T07:02:11.823Z,74.32
2019-05-20T07:03:11.730Z,74.80
2019-05-20T07:04:11.658Z,74.32
2019-05-20T07:05:11.548Z,74.41
2019-05-20T07:06:11.458Z,74.93
2019-05-20T07:07:20.406Z,74.55
2019-05-20T07:08:11.269Z,74.22
2019-05-20T07:09:11.205Z,74.55
2019-05-20T07:10:11.088Z,75.02
2019-05-20T07:11:10.994Z,74.70
2019-05-20T07:12:11.007Z,74.65
2019-05-20T07:13:10.811Z,74.55
2019-05-20T07:14:10.738Z,74.74
2019-05-20T07:15:10.633Z,74.74
2019-05-20T07:16:10.535Z,74.45
2019-05-20T07:17:10.443Z,75.02
2019-05-20T07:18:10.352Z,74.74
2019-05-20T07:19:10.390Z,74.55
2019-05-20T07:20:10.183Z,75.02
2019-05-20T07:21:10.089Z,74.41
2019-05-20T07:22:09.986Z,74.74
2019-05-20T07:23:09.894Z,74.74
2019-05-20T07:24:09.815Z,74.93
2019-05-20T07:25:09.712Z,75.41
2019-05-20T07:26:09.718Z,74.74
2019-05-20T07:27:09.528Z,74.84
2019-05-20T07:28:09.441Z,74.65
2019-05-20T07:29:09.400Z,74.93
2019-05-20T07:30:09.267Z,75.12
2019-05-20T07:31:09.161Z,74.55
2019-05-20T07:32:09.068Z,75.02
2019-05-20T07:33:09.079Z,74.55
2019-05-20T07:34:08.890Z,74.84
2019-05-20T07:35:08.806Z,74.84
2019-05-20T07:36:10.124Z,74.55
2019-05-20T07:37:08.620Z,74.74
2019-05-20T07:38:08.517Z,74.84
2019-05-20T07:39:08.426Z,75.07
2019-05-20T07:40:08.449Z,74.68
2019-05-20T07:41:08.244Z,75.45
2019-05-20T07:42:08.152Z,75.16
2019-05-20T07:43:08.058Z,75.64
2019-05-20T07:44:07.970Z,75.16
2019-05-20T07:45:07.891Z,75.54
2019-05-20T07:46:07.784Z,75.83
2019-05-20T07:47:10.715Z,75.83
2019-05-20T07:48:07.612Z,75.64
2019-05-20T07:49:07.602Z,75.83
2019-05-20T07:50:07.434Z,76.06
2019-05-20T07:51:07.333Z,76.40
2019-05-20T07:52:07.269Z,76.40
2019-05-20T07:53:07.147Z,76.50
2019-05-20T07:54:07.170Z,76.31
2019-05-20T07:55:06.977Z,76.12
2019-05-20T07:56:06.873Z,76.31
2019-05-20T07:57:06.808Z,76.02
2019-05-20T07:58:06.692Z,76.79
2019-05-20T07:59:06.602Z,76.12
2019-05-20T08:00:06.523Z,76.21
2019-05-20T08:01:06.537Z,75.93
2019-05-20T08:02:06.332Z,76.12
2019-05-20T08:03:06.244Z,76.12
2019-05-20T08:04:06.144Z,77.21
2019-05-20T08:05:06.082Z,77.08
2019-05-20T08:06:05.971Z,76.98
2019-05-20T08:07:26.053Z,77.17
2019-05-20T08:08:05.781Z,77.26
2019-05-20T08:09:05.690Z,77.50
2019-05-20T08:10:05.622Z,77.11
2019-05-20T08:11:05.509Z,77.50
2019-05-20T08:12:05.423Z,77.31
2019-05-20T08:13:05.331Z,77.59
2019-05-20T08:14:05.252Z,77.50
2019-05-20T08:15:05.161Z,77.69
2019-05-20T08:16:05.058Z,77.50
2019-05-20T08:17:04.988Z,77.69
2019-05-20T08:18:04.875Z,77.97
2019-05-20T08:19:04.784Z,77.69
2019-05-20T08:20:04.708Z,77.50
2019-05-20T08:21:04.629Z,77.69
2019-05-20T08:22:04.510Z,77.59
2019-05-20T08:23:04.433Z,77.69
2019-05-20T08:24:04.330Z,77.50
2019-05-20T08:25:04.257Z,77.97
2019-05-20T08:26:04.150Z,78.11
2019-05-20T08:27:04.059Z,78.30
2019-05-20T08:28:03.966Z,78.69
2019-05-20T08:29:03.877Z,78.40
2019-05-20T08:30:03.801Z,78.78
2019-05-20T08:31:03.696Z,78.40
2019-05-20T08:32:03.607Z,78.49
2019-05-20T08:33:03.515Z,78.88
2019-05-20T08:34:03.525Z,78.74
2019-05-20T08:35:03.347Z,78.78
2019-05-20T08:36:03.243Z,79.41
2019-05-20T08:37:03.156Z,78.69
2019-05-20T08:38:03.065Z,79.26
2019-05-20T08:39:02.972Z,79.74
2019-05-20T08:40:02.909Z,79.74
2019-05-20T08:41:02.794Z,79.36
2019-05-20T08:42:02.705Z,79.83
2019-05-20T08:43:02.612Z,80.03
2019-05-20T08:44:02.525Z,80.60
2019-05-20T08:45:03.164Z,80.32
2019-05-20T08:46:02.342Z,80.55
2019-05-20T08:47:02.310Z,81.70
2019-05-20T08:48:02.164Z,81.79
2019-05-20T08:49:02.080Z,82.46
2019-05-20T08:50:04.392Z,83.94
2019-05-20T08:51:01.893Z,85.58
2019-05-20T08:52:01.807Z,86.05
2019-05-20T08:53:01.714Z,86.15
2019-05-20T08:54:01.630Z,86.54
2019-05-20T08:55:02.167Z,85.96
2019-05-20T08:56:01.459Z,84.91
2019-05-20T08:57:01.369Z,85.67
2019-05-20T08:58:01.266Z,85.63
2019-05-20T08:59:01.213Z,86.11
2019-05-20T09:00:01.128Z,86.21
2019-05-20T09:01:00.993Z,85.44
2019-05-20T09:02:00.918Z,84.95
2019-05-20T09:03:00.826Z,86.11
2019-05-20T09:04:01.047Z,85.63
2019-05-20T09:05:00.638Z,85.72
2019-05-20T09:06:00.562Z,85.53
2019-05-20T09:07:00.455Z,85.53
2019-05-20T09:08:03.586Z,85.92
2019-05-20T09:09:00.289Z,85.82
2019-05-20T09:10:00.200Z,85.44
2019-05-20T09:11:00.112Z,85.34
2019-05-20T09:12:00.014Z,85.34
2019-05-20T09:12:59.923Z,85.82
2019-05-20T09:13:59.829Z,85.44
2019-05-20T09:14:59.807Z,85.44
2019-05-20T09:15:59.664Z,85.72
2019-05-20T09:16:59.560Z,85.25
2019-05-20T09:17:59.476Z,85.34
2019-05-20T09:18:59.383Z,84.38
2019-05-20T09:19:59.293Z,84.44
2019-05-20T09:20:59.220Z,84.05
2019-05-20T09:21:59.114Z,84.72
2019-05-20T09:23:02.539Z,83.95
2019-05-20T09:23:59.026Z,83.95
2019-05-20T09:24:59.007Z,82.62
2019-05-20T09:25:58.766Z,82.90
2019-05-20T09:26:58.665Z,82.71
2019-05-20T09:27:58.572Z,82.32
2019-05-20T09:28:58.484Z,82.81
2019-05-20T09:29:58.414Z,82.90
2019-05-20T09:30:58.318Z,82.62
2019-05-20T09:31:58.213Z,82.04
2019-05-20T09:32:58.140Z,83.38
2019-05-20T09:33:58.036Z,82.52
2019-05-20T09:34:57.946Z,82.81
2019-05-20T09:35:57.871Z,82.71
2019-05-20T09:36:57.764Z,81.98
2019-05-20T09:37:57.675Z,81.98
2019-05-20T09:38:57.687Z,82.75
2019-05-20T09:39:57.495Z,81.70
2019-05-20T09:40:57.423Z,82.65
2019-05-20T09:41:57.314Z,82.46
2019-05-20T09:42:57.222Z,82.65
2019-05-20T09:43:57.176Z,82.56
2019-05-20T09:44:57.059Z,83.04
2019-05-20T09:46:07.439Z,83.33
2019-05-20T09:46:56.883Z,83.33
2019-05-20T09:47:56.775Z,82.18
2019-05-20T09:48:56.685Z,82.85
2019-05-20T09:49:56.607Z,82.75
2019-05-20T09:50:56.517Z,82.85
2019-05-20T09:51:56.415Z,82.65
2019-05-20T09:52:56.427Z,83.14
2019-05-20T09:53:56.236Z,82.85
2019-05-20T09:54:56.146Z,82.37
2019-05-20T09:55:56.070Z,82.65
2019-05-20T09:56:55.967Z,82.85
2019-05-20T09:57:55.877Z,83.42
2019-05-20T09:58:55.787Z,83.04
2019-05-20T09:59:55.800Z,83.14
2019-05-20T10:00:55.608Z,82.85
2019-05-20T10:01:55.533Z,83.52
2019-05-20T10:02:55.424Z,82.75
2019-05-20T10:03:55.337Z,82.75
2019-05-20T10:04:55.255Z,82.75
2019-05-20T10:05:55.188Z,82.65
2019-05-20T10:06:55.206Z,82.65
2019-05-20T10:07:54.992Z,82.85
2019-05-20T10:08:54.890Z,81.54
2019-05-20T10:09:54.798Z,83.27
2019-05-20T10:10:59.177Z,83.75
2019-05-20T10:11:54.644Z,82.89
2019-05-20T10:12:54.530Z,82.70
2019-05-20T10:13:54.548Z,82.51
2019-05-20T10:14:54.349Z,82.89
2019-05-20T10:15:54.261Z,82.03
2019-05-20T10:16:54.192Z,82.70
2019-05-20T10:17:54.087Z,82.79
2019-05-20T10:18:55.537Z,82.70
2019-05-20T10:19:53.904Z,82.79
2019-05-20T10:20:53.917Z,82.79
2019-05-20T10:21:53.749Z,82.60
2019-05-20T10:22:53.688Z,82.79
2019-05-20T10:23:53.543Z,82.51
2019-05-20T10:24:53.457Z,82.51
2019-05-20T10:25:53.372Z,82.89
2019-05-20T10:26:53.305Z,82.93
2019-05-20T10:27:57.180Z,82.79
2019-05-20T10:28:53.098Z,83.85
2019-05-20T10:29:53.026Z,82.60
2019-05-20T10:30:52.925Z,82.70
2019-05-20T10:31:52.843Z,82.89
2019-05-20T10:32:52.742Z,82.79
2019-05-20T10:33:52.753Z,82.98
2019-05-20T10:34:52.578Z,83.08
2019-05-20T10:35:52.470Z,83.08
2019-05-20T10:36:52.396Z,82.75
2019-05-20T10:37:52.299Z,82.08
2019-05-20T10:38:58.446Z,82.85
2019-05-20T10:39:52.118Z,81.84
2019-05-20T10:40:52.029Z,81.45
2019-05-20T10:41:52.053Z,80.87
2019-05-20T10:42:51.845Z,81.35
2019-05-20T10:43:51.759Z,81.35
2019-05-20T10:44:51.670Z,80.97
2019-05-20T10:45:51.578Z,81.35
2019-05-20T10:46:51.503Z,80.78
2019-05-20T10:47:51.514Z,81.35
2019-05-20T10:48:51.309Z,80.68
2019-05-20T10:49:51.219Z,80.97
2019-05-20T10:50:51.133Z,80.68
2019-05-20T10:51:51.057Z,80.68
2019-05-20T10:52:50.950Z,80.11
2019-05-20T10:53:50.860Z,80.30
2019-05-20T10:54:50.772Z,76.94
2019-05-20T10:55:50.685Z,78.13
2019-05-20T10:56:50.595Z,77.23
2019-05-20T10:57:50.518Z,76.94
2019-05-20T10:58:50.415Z,77.04
2019-05-20T10:59:50.326Z,77.23
2019-05-20T11:01:01.802Z,77.08
2019-05-20T11:01:50.148Z,76.59
2019-05-20T11:02:50.076Z,76.88
2019-05-20T11:03:49.965Z,76.69
2019-05-20T11:04:49.877Z,76.98
2019-05-20T11:05:49.787Z,77.36
2019-05-20T11:06:49.716Z,76.98
2019-05-20T11:07:49.709Z,76.98
2019-05-20T11:08:49.551Z,77.88
2019-05-20T11:09:49.433Z,76.73
2019-05-20T11:10:49.363Z,76.69
2019-05-20T11:11:49.253Z,76.92
2019-05-20T11:12:49.175Z,77.65
2019-05-20T11:13:49.077Z,77.08
2019-05-20T11:14:48.983Z,76.98
2019-05-20T11:15:48.892Z,77.04
2019-05-20T11:16:48.804Z,77.65
2019-05-20T11:17:48.731Z,77.13
2019-05-20T11:18:48.627Z,77.71
2019-05-20T11:19:48.538Z,76.94
2019-05-20T11:20:48.446Z,76.94
2019-05-20T11:21:48.380Z,77.84
2019-05-20T11:22:48.290Z,77.26
2019-05-20T11:23:48.184Z,77.36
2019-05-20T11:24:48.090Z,76.88
2019-05-20T11:25:48.000Z,77.08
2019-05-20T11:26:47.910Z,76.98
2019-05-20T11:27:47.837Z,77.26
2019-05-20T11:28:47.737Z,77.65
2019-05-20T11:29:47.644Z,77.13
2019-05-20T11:30:47.552Z,75.89
2019-05-20T11:31:47.463Z,77.80
2019-05-20T11:32:47.392Z,76.65
2019-05-20T11:33:47.282Z,76.75
2019-05-20T11:34:47.344Z,77.33
2019-05-20T11:35:47.104Z,76.75
2019-05-20T11:36:47.015Z,75.60
2019-05-20T11:37:46.939Z,76.37
2019-05-20T11:38:46.834Z,75.98
2019-05-20T11:39:46.744Z,75.95
2019-05-20T11:40:46.664Z,75.65
2019-05-20T11:41:53.440Z,75.46
2019-05-20T11:42:46.490Z,75.75
2019-05-20T11:43:46.388Z,75.85
2019-05-20T11:44:46.474Z,75.56
2019-05-20T11:45:46.214Z,75.27
2019-05-20T11:46:46.148Z,75.18
2019-05-20T11:47:46.041Z,75.08
2019-05-20T11:48:45.940Z,75.18
2019-05-20T11:49:45.848Z,74.98
2019-05-20T11:50:45.757Z,75.08
2019-05-20T11:51:45.672Z,75.37
2019-05-20T11:52:45.594Z,75.08
2019-05-20T11:53:45.490Z,74.60
2019-05-20T11:54:45.395Z,74.89
2019-05-20T11:55:45.308Z,75.08
2019-05-20T11:56:45.217Z,75.08
2019-05-20T11:57:45.137Z,74.51
2019-05-20T11:58:45.034Z,75.08
2019-05-20T11:59:44.944Z,74.98
2019-05-20T12:00:44.857Z,74.89
2019-05-20T12:01:44.768Z,74.73
2019-05-20T12:02:44.688Z,74.83
2019-05-20T12:03:44.587Z,75.21
2019-05-20T12:04:44.495Z,74.83
2019-05-20T12:05:44.413Z,74.73
2019-05-20T12:06:44.315Z,74.93
2019-05-20T12:07:44.240Z,74.93
2019-05-20T12:08:44.133Z,75.02
2019-05-20T12:09:49.545Z,75.12
2019-05-20T12:10:43.952Z,74.16
2019-05-20T12:11:43.989Z,75.31
2019-05-20T12:12:46.053Z,75.31
2019-05-20T12:13:43.702Z,75.02
2019-05-20T12:14:43.595Z,74.35
2019-05-20T12:15:43.501Z,74.35
2019-05-20T12:16:43.412Z,74.06
2019-05-20T12:17:43.331Z,74.64
2019-05-20T12:18:45.181Z,74.54
2019-05-20T12:19:43.143Z,75.08
2019-05-20T12:20:43.055Z,74.31
2019-05-20T12:21:42.962Z,75.27
2019-05-20T12:22:42.886Z,74.79
2019-05-20T12:23:42.795Z,74.89
2019-05-20T12:24:42.688Z,73.93
2019-05-20T12:25:42.880Z,74.31
2019-05-20T12:26:42.508Z,74.60
2019-05-20T12:27:42.420Z,74.41
2019-05-20T12:28:42.341Z,74.69
2019-05-20T12:29:42.239Z,74.12
2019-05-20T12:30:42.183Z,74.41
2019-05-20T12:31:42.057Z,75.65
2019-05-20T12:32:42.069Z,74.60
2019-05-20T12:33:41.889Z,75.14
2019-05-20T12:34:41.785Z,74.95
2019-05-20T12:35:41.695Z,74.66
2019-05-20T12:36:41.612Z,74.12
2019-05-20T12:37:45.089Z,74.89
2019-05-20T12:38:41.435Z,74.57
2019-05-20T12:39:41.434Z,74.60
2019-05-20T12:40:41.242Z,74.60
2019-05-20T12:41:41.158Z,73.35
2019-05-20T12:42:41.059Z,73.93
2019-05-20T12:43:44.276Z,74.41
2019-05-20T12:44:40.877Z,73.93
2019-05-20T12:45:40.804Z,74.31
2019-05-20T12:46:40.814Z,73.93
2019-05-20T12:47:40.606Z,73.83
2019-05-20T12:48:40.541Z,74.41
2019-05-20T12:49:40.423Z,74.60
2019-05-20T12:50:40.333Z,73.83
2019-05-20T12:51:40.253Z,74.12